Time;durP1;ratioP1;P1;durP2;ratioP2;P2;SDS_P1;SDS_P2;PMS_P1;PMS_P2;Temp;Humidity;BMP_temperature;BMP_pressure;BME280_temperature;BME280_humidity;BME280_pressure;Samples;Min_cycle;Max_cycle;Signal;HPM_P1;HPM_P2
2023/10/17 11:34:35;;;;;;;2.08;1.77;;;;;;;;;;6276782;22;20031;-88
2023/10/17 11:37:10;;;;;;;2.65;1.85;;;;;;;;;;6277201;22;20012;-86
2023/10/17 11:39:39;;;;;;;4.68;2.30;;;;;;;;;;6252304;22;20027;-87
2023/10/17 11:42:06;;;;;;;3.78;2.03;;;;;;;;;;6276844;22;20004;-87
2023/10/17 11:44:31;;;;;;;3.17;2.00;;;;;;;;;;6249847;22;20457;-87
2023/10/17 16:15:59;;;;;;;5.20;3.70;;;;;;;;;;6244547;22;20098;-93
2023/10/17 16:18:25;;;;;;;8.52;3.90;;;;;;;;;;6253175;22;20389;-90
2023/10/17 16:20:51;;;;;;;9.68;4.47;;;;;;;;;;6251521;22;20095;-91
2023/10/17 16:23:20;;;;;;;9.48;4.38;;;;;;;;;;6252676;22;20074;-94
2023/10/17 16:25:49;;;;;;;6.33;4.37;;;;;;;;;;6252747;22;20094;-91
2023/10/17 16:28:16;;;;;;;10.10;3.95;;;;;;;;;;6252476;22;20014;-89
2023/10/17 16:30:42;;;;;;;8.00;4.15;;;;;;;;;;6252062;22;20058;-91
2023/10/17 16:33:13;;;;;;;8.23;4.40;;;;;;;;;;6251927;22;20326;-88
2023/10/17 16:35:42;;;;;;;5.45;3.65;;;;;;;;;;6252408;22;20007;-89
2023/10/17 16:38:10;;;;;;;6.60;3.77;;;;;;;;;;6252047;22;20004;-92
2023/10/17 16:40:39;;;;;;;7.43;4.50;;;;;;;;;;6252086;22;20015;-90
2023/10/17 16:43:05;;;;;;;8.45;4.30;;;;;;;;;;6252070;22;20026;-90
2023/10/17 16:45:30;;;;;;;9.90;4.20;;;;;;;;;;6252314;22;20427;-91
2023/10/17 16:47:56;;;;;;;7.38;4.25;;;;;;;;;;6252333;22;20418;-89
2023/10/17 16:50:24;;;;;;;5.72;4.35;;;;;;;;;;6253036;22;20004;-92
2023/10/17 16:52:49;;;;;;;6.75;4.13;;;;;;;;;;6252647;22;20342;-92
2023/10/17 16:55:16;;;;;;;10.10;4.55;;;;;;;;;;6252394;22;20007;-91
2023/10/17 16:57:42;;;;;;;5.90;3.85;;;;;;;;;;6252112;22;20107;-92
2023/10/17 17:00:13;;;;;;;7.65;4.38;;;;;;;;;;6251961;22;20004;-91
2023/10/17 17:02:43;;;;;;;6.60;4.55;;;;;;;;;;6252060;22;20004;-90
2023/10/17 17:05:09;;;;;;;;;;;;;;;;;;6279298;22;20014;-91
2023/10/17 17:07:37;;;;;;;6.22;3.92;;;;;;;;;;6252035;22;19907;-91
2023/10/17 17:10:02;;;;;;;7.35;4.60;;;;;;;;;;6252104;22;20011;-91
2023/10/17 17:12:28;;;;;;;4.68;3.65;;;;;;;;;;6251799;22;20439;-91
2023/10/17 17:14:53;;;;;;;8.48;4.00;;;;;;;;;;6251789;22;20003;-90
2023/10/17 17:17:19;;;;;;;7.28;4.70;;;;;;;;;;6252242;22;20083;-91
2023/10/17 17:19:45;;;;;;;12.10;4.70;;;;;;;;;;6278944;22;20000;-91
2023/10/17 17:22:10;;;;;;;6.10;4.00;;;;;;;;;;6254547;22;20442;-90
2023/10/17 17:24:36;;;;;;;5.60;3.38;;;;;;;;;;6287156;22;20010;-90
2023/10/17 17:27:02;;;;;;;4.72;3.17;;;;;;;;;;6258686;22;20011;-90
2023/10/17 17:29:27;;;;;;;8.15;3.28;;;;;;;;;;6259275;22;20012;-89
2023/10/17 17:31:55;;;;;;;5.03;3.25;;;;;;;;;;6285294;22;20491;-89
2023/10/17 17:34:21;;;;;;;8.88;4.70;;;;;;;;;;6259548;22;20007;-92
2023/10/17 17:36:51;;;;;;;8.35;4.18;;;;;;;;;;6262605;22;20004;-91
2023/10/17 17:39:21;;;;;;;;;;;;;;;;;;6262354;22;20011;-89
2023/10/17 17:41:56;;;;;;;6.25;3.70;;;;;;;;;;6257286;22;19915;-89
2023/10/17 17:44:21;;;;;;;7.10;3.67;;;;;;;;;;6262814;22;20007;-89
2023/10/17 17:46:47;;;;;;;8.10;5.00;;;;;;;;;;6259079;22;20475;-89
2023/10/17 17:49:12;;;;;;;8.48;4.38;;;;;;;;;;6262253;22;19996;-91
2023/10/17 17:51:42;;;;;;;6.68;4.38;;;;;;;;;;6254941;22;20015;-91
2023/10/17 17:54:09;;;;;;;6.57;3.80;;;;;;;;;;6254611;22;20014;-91
2023/10/17 17:56:34;;;;;;;5.55;3.55;;;;;;;;;;6253924;22;20007;-92
2023/10/17 17:59:01;;;;;;;6.15;3.45;;;;;;;;;;6252939;22;20010;-90
2023/10/17 18:01:34;;;;;;;6.38;4.07;;;;;;;;;;6253024;22;20006;-91
2023/10/17 18:04:00;;;;;;;12.65;5.57;;;;;;;;;;6280213;22;20095;-90
2023/10/17 18:06:25;;;;;;;6.57;4.78;;;;;;;;;;6252827;22;20004;-91
2023/10/17 18:08:50;;;;;;;7.60;4.57;;;;;;;;;;6252781;22;20011;-90
2023/10/17 18:11:17;;;;;;;6.28;4.03;;;;;;;;;;6252670;22;20090;-92
2023/10/17 18:13:42;;;;;;;6.13;3.88;;;;;;;;;;6252653;22;20011;-91
2023/10/17 18:16:09;;;;;;;7.72;4.18;;;;;;;;;;6253095;22;20065;-88
2023/10/17 18:18:35;;;;;;;7.50;4.35;;;;;;;;;;6228423;22;20008;-91
2023/10/17 18:21:11;;;;;;;6.60;4.57;;;;;;;;;;6259032;22;20015;-91
2023/10/17 18:23:43;;;;;;;5.50;4.78;;;;;;;;;;6254468;22;20030;-88
2023/10/17 18:26:15;;;;;;;8.90;5.03;;;;;;;;;;6284161;22;20042;-88
2023/10/17 18:28:43;;;;;;;7.32;4.63;;;;;;;;;;6286331;22;20000;-89
2023/10/17 18:31:20;;;;;;;9.93;5.10;;;;;;;;;;6297217;22;20020;-89
2023/10/17 18:34:00;;;;;;;10.32;4.40;;;;;;;;;;6270934;22;20019;-92
2023/10/17 18:36:27;;;;;;;6.30;4.55;;;;;;;;;;6271745;22;19999;-95
2023/10/17 18:38:58;;;;;;;7.03;4.45;;;;;;;;;;6247596;22;20012;-93
2023/10/17 18:41:27;;;;;;;7.03;4.47;;;;;;;;;;6258904;22;20073;-93
2023/10/17 18:43:53;;;;;;;8.43;4.07;;;;;;;;;;6264330;22;20004;-91
2023/10/17 18:46:19;;;;;;;6.18;4.40;;;;;;;;;;6265997;22;20485;-92
2023/10/17 18:48:44;;;;;;;8.15;4.80;;;;;;;;;;6256153;23;20008;-90
2023/10/17 18:51:13;;;;;;;8.13;4.60;;;;;;;;;;6254554;23;20015;-90
2023/10/17 18:53:39;;;;;;;6.72;4.75;;;;;;;;;;6253739;23;20436;-91
2023/10/17 18:56:09;;;;;;;9.90;5.10;;;;;;;;;;6247528;23;20007;-91
2023/10/17 18:58:37;;;;;;;6.45;4.43;;;;;;;;;;6247279;23;20000;-91
2023/10/17 19:01:07;;;;;;;5.32;4.00;;;;;;;;;;6247852;23;20004;-90
2023/10/17 19:03:34;;;;;;;6.78;4.10;;;;;;;;;;6246477;23;20079;-91
2023/10/17 19:06:01;;;;;;;7.53;5.13;;;;;;;;;;6246066;23;20005;-90
2023/10/17 19:08:29;;;;;;;8.15;5.05;;;;;;;;;;6245804;23;20035;-90
2023/10/17 19:10:55;;;;;;;5.13;3.35;;;;;;;;;;6246141;23;20008;-91
2023/10/17 19:13:20;;;;;;;4.65;3.50;;;;;;;;;;6245990;23;20005;-92
2023/10/17 19:15:46;;;;;;;5.53;3.90;;;;;;;;;;6246242;23;20008;-91
2023/10/17 19:18:13;;;;;;;5.65;4.05;;;;;;;;;;6246959;23;20323;-91
2023/10/17 19:20:45;;;;;;;5.40;3.85;;;;;;;;;;6246164;23;20001;-92
2023/10/17 19:23:13;;;;;;;6.88;3.35;;;;;;;;;;6246416;23;20030;-92
2023/10/17 19:25:40;;;;;;;4.38;3.35;;;;;;;;;;6246262;23;20046;-92
2023/10/17 19:28:07;;;;;;;5.32;2.95;;;;;;;;;;6246221;23;20011;-91
2023/10/17 19:30:35;;;;;;;6.03;3.60;;;;;;;;;;6245979;23;20065;-91
2023/10/17 19:33:02;;;;;;;6.07;3.50;;;;;;;;;;6246119;23;20138;-91
2023/10/17 19:35:29;;;;;;;6.68;3.17;;;;;;;;;;6247022;23;20004;-94
2023/10/17 19:37:55;;;;;;;7.03;3.05;;;;;;;;;;6247994;23;20415;-91
2023/10/17 19:40:21;;;;;;;3.80;2.95;;;;;;;;;;6272627;22;20050;-92
2023/10/17 19:42:48;;;;;;;6.00;3.13;;;;;;;;;;6279251;22;20003;-94
2023/10/17 19:45:20;;;;;;;5.30;3.05;;;;;;;;;;6252237;22;20011;-91
2023/10/17 19:47:48;;;;;;;4.80;3.20;;;;;;;;;;6280406;22;19996;-93
2023/10/17 19:50:15;;;;;;;6.30;3.55;;;;;;;;;;6250994;22;20338;-90
2023/10/17 19:52:45;;;;;;;6.45;4.10;;;;;;;;;;6250825;22;20061;-90
2023/10/17 19:55:13;;;;;;;7.10;4.35;;;;;;;;;;6277817;22;20003;-90
2023/10/17 19:57:39;;;;;;;8.10;4.45;;;;;;;;;;6250629;22;20308;-91
2023/10/17 20:00:08;;;;;;;6.35;4.43;;;;;;;;;;6277778;22;20034;-90
2023/10/17 20:02:35;;;;;;;7.00;4.25;;;;;;;;;;6277784;22;20426;-90
2023/10/17 20:05:06;;;;;;;9.25;3.72;;;;;;;;;;6251571;22;20422;-91
2023/10/17 20:07:32;;;;;;;4.78;3.78;;;;;;;;;;6277725;22;19996;-90
2023/10/17 20:09:58;;;;;;;7.65;3.67;;;;;;;;;;6277949;22;20057;-92
2023/10/17 20:12:23;;;;;;;5.43;3.38;;;;;;;;;;6278134;22;20025;-91
2023/10/17 20:14:49;;;;;;;5.32;3.40;;;;;;;;;;6250859;22;19999;-92
2023/10/17 20:17:14;;;;;;;6.60;3.22;;;;;;;;;;6251665;22;20007;-93
2023/10/17 20:19:42;;;;;;;4.85;3.38;;;;;;;;;;6251469;22;20004;-93
2023/10/17 20:22:08;;;;;;;5.13;3.40;;;;;;;;;;6251448;22;20004;-92
2023/10/17 20:24:33;;;;;;;5.07;3.67;;;;;;;;;;6250878;22;20441;-92
2023/10/17 20:26:59;;;;;;;5.75;3.80;;;;;;;;;;6251222;22;20007;-92
2023/10/17 20:29:24;;;;;;;7.63;3.60;;;;;;;;;;6250911;22;20004;-89
2023/10/17 20:31:50;;;;;;;5.68;3.58;;;;;;;;;;6251075;22;20423;-92
2023/10/17 20:34:16;;;;;;;5.57;3.45;;;;;;;;;;6251539;22;20008;-91
2023/10/17 20:36:41;;;;;;;4.97;3.70;;;;;;;;;;6251492;22;20004;-92
2023/10/17 20:39:07;;;;;;;4.60;3.15;;;;;;;;;;6250821;22;20342;-92
2023/10/17 20:41:35;;;;;;;8.05;3.63;;;;;;;;;;6250778;22;20326;-91
2023/10/17 20:44:01;;;;;;;7.80;3.28;;;;;;;;;;6250966;22;20008;-91
2023/10/17 20:46:26;;;;;;;4.35;3.20;;;;;;;;;;6278435;22;20322;-90
2023/10/17 20:48:52;;;;;;;5.43;3.40;;;;;;;;;;6253000;22;20000;-92
2023/10/17 20:51:18;;;;;;;6.22;3.72;;;;;;;;;;6252625;22;20398;-91
2023/10/17 20:53:47;;;;;;;13.55;3.95;;;;;;;;;;6252676;22;20011;-91
2023/10/17 20:56:13;;;;;;;4.25;3.28;;;;;;;;;;6252470;22;20082;-90
2023/10/17 20:58:39;;;;;;;4.07;3.67;;;;;;;;;;6252402;22;20028;-90
2023/10/17 21:01:05;;;;;;;6.10;3.58;;;;;;;;;;6279805;22;20038;-93
2023/10/17 21:03:33;;;;;;;6.72;3.97;;;;;;;;;;6252591;22;20442;-91
2023/10/17 21:06:02;;;;;;;6.85;4.03;;;;;;;;;;6252963;22;20008;-91
2023/10/17 21:08:31;;;;;;;5.75;3.83;;;;;;;;;;6252404;22;20004;-91
2023/10/17 21:10:57;;;;;;;6.93;3.83;;;;;;;;;;6252548;22;20077;-91
2023/10/17 21:13:23;;;;;;;6.18;4.20;;;;;;;;;;6252284;22;20010;-89
2023/10/17 21:15:50;;;;;;;7.13;4.53;;;;;;;;;;6252516;22;19999;-91
2023/10/17 21:18:16;;;;;;;7.10;4.63;;;;;;;;;;6252076;22;20074;-90
